createdAt,value
2022-08-05T00:02:07.917Z,25.69
2022-08-05T00:04:14.425Z,25.54
2022-08-05T00:06:27.862Z,25.40
2022-08-05T00:08:35.641Z,25.35
2022-08-05T00:10:38.912Z,25.38
2022-08-05T00:12:55.873Z,25.33
2022-08-05T00:14:59.591Z,25.29
2022-08-05T00:17:22.237Z,25.20
2022-08-05T00:19:33.252Z,25.16
2022-08-05T00:21:36.810Z,25.13
2022-08-05T00:23:45.813Z,25.12
2022-08-05T00:25:50.183Z,25.10
2022-08-05T00:27:56.656Z,25.01
2022-08-05T00:30:03.067Z,25.04
2022-08-05T00:32:12.278Z,25.06
2022-08-05T00:34:53.413Z,25.04
2022-08-05T00:37:09.839Z,25.03
2022-08-05T00:39:04.997Z,24.97
2022-08-05T00:41:11.771Z,24.99
2022-08-05T00:43:15.378Z,25.01
2022-08-05T00:45:25.015Z,25.06
2022-08-05T00:47:57.337Z,25.13
2022-08-05T00:50:04.098Z,25.23
2022-08-05T00:52:08.204Z,25.23
2022-08-05T00:54:12.834Z,25.25
2022-08-05T00:56:17.299Z,25.32
2022-08-05T00:58:20.358Z,25.25
2022-08-05T01:00:26.025Z,25.31
2022-08-05T01:02:28.832Z,25.37
2022-08-05T01:04:31.484Z,25.64
2022-08-05T01:06:34.126Z,25.74
2022-08-05T01:08:43.038Z,26.17
2022-08-05T01:10:57.956Z,26.22
2022-08-05T01:13:13.347Z,26.25
2022-08-05T01:15:35.534Z,26.15
2022-08-05T01:17:44.660Z,26.02
2022-08-05T01:20:07.292Z,25.81
2022-08-05T01:22:41.833Z,25.78
2022-08-05T01:25:00.745Z,25.59
2022-08-05T01:27:17.799Z,25.57
2022-08-05T01:29:30.823Z,25.34
2022-08-05T01:31:42.446Z,25.28
2022-08-05T01:33:53.688Z,25.14
2022-08-05T01:36:00.077Z,25.11
2022-08-05T01:38:06.927Z,25.08
2022-08-05T01:40:11.605Z,24.97
2022-08-05T01:42:18.188Z,24.98
2022-08-05T01:44:24.713Z,25.01
2022-08-05T01:46:42.238Z,24.93
2022-08-05T01:48:50.040Z,24.74
2022-08-05T01:50:55.493Z,24.75
2022-08-05T01:53:02.583Z,24.69
2022-08-05T01:55:12.605Z,24.57
2022-08-05T01:58:29.946Z,24.54
2022-08-05T01:59:53.738Z,24.55
2022-08-05T02:01:59.075Z,24.57
2022-08-05T02:04:04.216Z,24.41
2022-08-05T02:06:33.502Z,24.54
2022-08-05T02:08:31.627Z,24.54
2022-08-05T02:10:40.363Z,24.43
2022-08-05T02:12:51.012Z,24.40
2022-08-05T02:15:04.448Z,24.31
2022-08-05T02:17:17.069Z,24.31
2022-08-05T02:19:46.952Z,24.27
2022-08-05T02:21:55.348Z,24.24
2022-08-05T02:24:05.336Z,24.29
2022-08-05T02:26:11.776Z,24.38
2022-08-05T02:28:15.957Z,24.27
2022-08-05T02:30:51.864Z,24.17
2022-08-05T02:33:01.056Z,24.23
2022-08-05T02:35:13.588Z,24.27
2022-08-05T02:37:18.285Z,24.10
2022-08-05T02:39:25.886Z,24.14
2022-08-05T02:41:42.947Z,24.10
2022-08-05T02:44:06.288Z,24.12
2022-08-05T02:46:17.717Z,24.04
2022-08-05T02:48:31.202Z,24.03
2022-08-05T02:50:34.667Z,23.96
2022-08-05T02:52:38.363Z,23.99
2022-08-05T02:54:52.064Z,23.96
2022-08-05T02:56:56.971Z,23.95
2022-08-05T02:59:01.451Z,23.77
2022-08-05T03:01:04.750Z,23.80
2022-08-05T03:03:10.543Z,23.82
2022-08-05T03:05:14.824Z,23.76
2022-08-05T03:07:40.473Z,23.84
2022-08-05T03:09:51.444Z,23.79
2022-08-05T03:11:57.887Z,23.76
2022-08-05T03:14:03.328Z,23.75
2022-08-05T03:16:07.253Z,23.62
2022-08-05T03:18:13.677Z,23.69
2022-08-05T03:20:20.182Z,23.69
2022-08-05T03:22:32.384Z,23.68
2022-08-05T03:24:35.549Z,23.71
2022-08-05T03:26:38.431Z,23.69
2022-08-05T03:28:41.350Z,23.52
2022-08-05T03:30:45.565Z,23.38
2022-08-05T03:32:50.442Z,23.47
2022-08-05T03:34:55.454Z,23.43
2022-08-05T03:36:58.227Z,23.45
2022-08-05T03:39:08.091Z,23.40
2022-08-05T03:41:17.109Z,23.36
2022-08-05T03:44:08.666Z,23.24
2022-08-05T03:45:57.432Z,23.25
2022-08-05T03:48:01.082Z,23.07
2022-08-05T03:50:05.870Z,22.98
2022-08-05T03:52:49.155Z,23.08
2022-08-05T03:55:34.206Z,23.01
2022-08-05T03:57:16.499Z,23.17
2022-08-05T03:59:24.691Z,22.93
2022-08-05T04:01:32.279Z,23.06
2022-08-05T04:03:37.978Z,23.08
2022-08-05T04:05:44.015Z,22.74
2022-08-05T04:07:58.147Z,22.71
2022-08-05T04:10:02.960Z,22.77
2022-08-05T04:12:11.392Z,22.86
2022-08-05T04:14:30.191Z,22.84
2022-08-05T04:16:35.394Z,22.92
2022-08-05T04:18:39.585Z,22.92
2022-08-05T04:20:43.847Z,22.60
2022-08-05T04:22:47.755Z,22.50
2022-08-05T04:24:52.413Z,22.42
2022-08-05T04:26:55.694Z,22.22
2022-08-05T04:29:01.291Z,22.23
2022-08-05T04:31:10.620Z,22.31
2022-08-05T04:33:14.072Z,22.43
2022-08-05T04:35:19.601Z,22.36
2022-08-05T04:38:00.708Z,22.67
2022-08-05T04:39:46.691Z,22.70
2022-08-05T04:41:56.190Z,22.73
2022-08-05T04:43:58.898Z,22.66
2022-08-05T04:46:03.140Z,22.50
2022-08-05T04:48:10.240Z,22.57
2022-08-05T04:50:34.653Z,22.40
2022-08-05T04:52:43.356Z,22.50
2022-08-05T04:54:47.521Z,22.50
2022-08-05T04:56:55.264Z,22.46
2022-08-05T04:59:00.294Z,22.50
2022-08-05T05:02:05.971Z,22.55
2022-08-05T05:03:45.698Z,22.72
2022-08-05T05:06:35.842Z,22.76
2022-08-05T05:08:14.399Z,22.74
2022-08-05T05:10:34.740Z,22.69
2022-08-05T05:12:37.439Z,22.72
2022-08-05T05:14:49.345Z,22.84
2022-08-05T05:16:54.490Z,22.84
2022-08-05T05:21:20.195Z,23.19
2022-08-05T05:23:24.195Z,23.29
2022-08-05T05:25:32.665Z,23.29
2022-08-05T05:27:44.567Z,23.36
2022-08-05T05:30:04.480Z,23.62
2022-08-05T05:32:08.124Z,23.66
2022-08-05T05:34:15.626Z,23.72
2022-08-05T05:36:19.334Z,23.84
2022-08-05T05:38:27.132Z,23.95
2022-08-05T05:40:32.071Z,23.90
2022-08-05T05:42:34.944Z,24.03
2022-08-05T05:44:42.911Z,24.20
2022-08-05T05:46:48.675Z,24.24
2022-08-05T05:48:53.916Z,24.19
2022-08-05T05:50:56.631Z,24.27
2022-08-05T05:52:59.255Z,24.29
2022-08-05T05:55:07.439Z,24.26
2022-08-05T05:57:19.046Z,24.37
2022-08-05T05:59:22.136Z,24.55
2022-08-05T06:01:25.377Z,24.50
2022-08-05T06:04:01.366Z,24.62
2022-08-05T06:06:02.534Z,24.83
2022-08-05T06:08:06.625Z,25.17
2022-08-05T06:10:14.096Z,25.23
2022-08-05T06:12:18.412Z,25.37
2022-08-05T06:14:22.332Z,25.24
2022-08-05T06:16:36.632Z,25.50
2022-08-05T06:18:39.761Z,25.53
2022-08-05T06:20:42.493Z,25.64
2022-08-05T06:22:50.600Z,26.26
2022-08-05T06:24:53.740Z,25.63
2022-08-05T06:26:57.762Z,25.70
2022-08-05T06:29:06.072Z,25.60
2022-08-05T06:31:23.187Z,26.13
2022-08-05T06:34:07.859Z,26.61
2022-08-05T06:36:07.719Z,26.03
2022-08-05T06:38:12.912Z,26.10
2022-08-05T06:40:18.203Z,25.80
2022-08-05T06:42:25.393Z,25.42
2022-08-05T06:44:28.367Z,25.95
2022-08-05T06:46:31.122Z,26.55
2022-08-05T06:48:52.623Z,26.40
2022-08-05T06:50:58.089Z,26.95
2022-08-05T06:53:03.717Z,26.24
2022-08-05T06:55:14.492Z,26.33
2022-08-05T06:58:02.540Z,25.95
2022-08-05T06:59:42.475Z,26.43
2022-08-05T07:01:57.763Z,26.66
2022-08-05T07:04:02.983Z,26.56
2022-08-05T07:06:14.399Z,26.82
2022-08-05T07:08:18.017Z,26.72
2022-08-05T07:10:21.949Z,27.38
2022-08-05T07:12:52.616Z,27.30
2022-08-05T07:15:14.262Z,28.52
2022-08-05T07:18:08.337Z,28.83
2022-08-05T07:22:28.460Z,28.48
2022-08-05T07:24:33.815Z,28.21
2022-08-05T07:26:47.181Z,28.19
2022-08-05T07:28:50.627Z,27.50
2022-08-05T07:30:55.287Z,27.87
2022-08-05T07:32:58.245Z,27.88
2022-08-05T07:35:00.922Z,29.11
2022-08-05T07:37:23.818Z,30.21
2022-08-05T07:40:26.527Z,27.69
2022-08-05T07:42:14.194Z,29.62
2022-08-05T07:44:19.098Z,28.76
2022-08-05T07:46:25.502Z,30.10
2022-08-05T07:49:03.125Z,29.45
2022-08-05T07:50:51.340Z,29.43
2022-08-05T07:52:54.095Z,29.47
2022-08-05T07:54:57.461Z,28.92
2022-08-05T07:57:50.565Z,28.72
2022-08-05T07:59:38.380Z,29.57
2022-08-05T08:01:52.161Z,30.42
2022-08-05T08:04:00.111Z,30.30
2022-08-05T08:06:04.559Z,29.79
2022-08-05T08:08:12.282Z,29.87
2022-08-05T08:10:15.339Z,30.33
2022-08-05T08:12:35.058Z,30.17
2022-08-05T08:14:42.407Z,31.13
2022-08-05T08:16:53.478Z,29.52
2022-08-05T08:18:56.656Z,29.96
2022-08-05T08:21:03.655Z,30.35
2022-08-05T08:23:07.506Z,30.02
2022-08-05T08:25:59.898Z,28.78
2022-08-05T08:27:53.651Z,29.68
2022-08-05T08:30:05.898Z,29.53
2022-08-05T08:32:28.065Z,30.61
2022-08-05T08:34:33.402Z,31.01
2022-08-05T08:36:48.868Z,29.69
2022-08-05T08:38:56.157Z,31.05
2022-08-05T08:41:01.382Z,31.55
2022-08-05T08:45:04.465Z,30.27
2022-08-05T08:45:29.858Z,31.07
2022-08-05T08:48:05.437Z,31.98
2022-08-05T08:50:13.132Z,30.81
2022-08-05T08:52:25.589Z,29.96
2022-08-05T08:54:28.918Z,31.47
2022-08-05T08:56:33.367Z,30.84
2022-08-05T08:58:44.563Z,30.31
2022-08-05T09:00:51.524Z,30.54
2022-08-05T09:02:55.985Z,29.70
2022-08-05T09:05:16.678Z,30.75
2022-08-05T09:07:29.025Z,31.84
2022-08-05T09:09:34.834Z,30.85
2022-08-05T09:11:53.649Z,30.60
2022-08-05T09:14:09.663Z,32.57
2022-08-05T09:16:22.491Z,33.88
2022-08-05T09:18:31.104Z,32.87
2022-08-05T09:20:36.655Z,31.63
2022-08-05T09:23:18.461Z,31.11
2022-08-05T09:25:24.568Z,30.83
2022-08-05T09:28:04.212Z,31.34
2022-08-05T09:30:08.467Z,32.02
2022-08-05T09:32:41.376Z,31.14
2022-08-05T09:34:51.414Z,33.08
2022-08-05T09:36:59.215Z,33.74
2022-08-05T09:39:17.991Z,32.36
2022-08-05T09:41:24.837Z,32.40
2022-08-05T09:43:40.538Z,31.52
2022-08-05T09:46:07.571Z,32.43
2022-08-05T09:48:21.143Z,32.44
2022-08-05T09:50:38.660Z,33.47
2022-08-05T09:52:48.339Z,32.72
2022-08-05T09:54:57.657Z,32.78
2022-08-05T09:57:01.220Z,32.38
2022-08-05T09:59:07.032Z,30.27
2022-08-05T10:01:15.709Z,32.94
2022-08-05T10:03:56.496Z,33.77
2022-08-05T10:06:15.587Z,34.73
2022-08-05T10:08:36.832Z,36.06
2022-08-05T10:10:53.600Z,34.69
2022-08-05T10:12:59.676Z,31.92
2022-08-05T10:15:17.137Z,31.45
2022-08-05T10:17:37.367Z,34.38
2022-08-05T10:20:02.856Z,32.64
2022-08-05T10:22:09.069Z,33.45
2022-08-05T10:24:19.487Z,32.38
2022-08-05T10:26:32.476Z,33.39
2022-08-05T10:28:36.448Z,33.93
2022-08-05T10:32:48.134Z,34.18
2022-08-05T10:33:04.371Z,35.80
2022-08-05T10:35:12.205Z,32.95
2022-08-05T10:37:16.640Z,32.77
2022-08-05T10:40:03.097Z,34.01
2022-08-05T10:41:56.800Z,32.08
2022-08-05T10:44:07.961Z,32.73
2022-08-05T10:46:14.261Z,32.72
2022-08-05T10:48:52.824Z,32.49
2022-08-05T10:51:01.835Z,32.95
2022-08-05T10:53:45.113Z,32.10
2022-08-05T10:56:14.529Z,32.25
2022-08-05T10:58:47.809Z,32.57
2022-08-05T11:00:55.052Z,32.51
2022-08-05T11:03:23.785Z,32.17
2022-08-05T11:05:29.313Z,32.42
2022-08-05T11:08:02.680Z,32.34
2022-08-05T11:10:03.697Z,32.40
2022-08-05T11:12:07.137Z,32.30
2022-08-05T11:14:13.736Z,31.92
2022-08-05T11:16:23.206Z,31.76
2022-08-05T11:18:36.961Z,32.08
2022-08-05T11:20:51.290Z,32.08
2022-08-05T11:22:58.026Z,32.16
2022-08-05T11:26:04.109Z,31.46
2022-08-05T11:28:00.516Z,32.25
2022-08-05T11:30:03.667Z,32.20
2022-08-05T11:32:26.321Z,32.23
2022-08-05T11:34:38.769Z,32.30
2022-08-05T11:36:52.785Z,32.18
2022-08-05T11:38:57.814Z,32.69
2022-08-05T11:41:34.329Z,32.67
2022-08-05T11:44:04.430Z,31.64
2022-08-05T11:46:30.601Z,32.30
2022-08-05T11:48:12.962Z,31.47
2022-08-05T11:50:17.431Z,31.86
2022-08-05T11:52:29.645Z,32.35
2022-08-05T11:54:34.996Z,31.40
2022-08-05T11:56:50.338Z,31.90
2022-08-05T11:58:54.821Z,32.13
2022-08-05T12:01:04.590Z,32.19
2022-08-05T12:03:29.328Z,32.03
2022-08-05T12:05:39.797Z,31.83
2022-08-05T12:08:09.013Z,32.44
2022-08-05T12:10:09.485Z,32.46
2022-08-05T12:12:22.544Z,32.43
2022-08-05T12:14:37.487Z,31.98
2022-08-05T12:16:45.129Z,32.15
2022-08-05T12:18:53.112Z,32.55
2022-08-05T12:20:56.133Z,32.24
2022-08-05T12:23:09.264Z,32.35
2022-08-05T12:25:14.185Z,32.07
2022-08-05T12:27:25.356Z,31.87
2022-08-05T12:29:37.980Z,32.77
2022-08-05T12:31:48.235Z,32.23
2022-08-05T12:33:57.267Z,32.39
2022-08-05T12:36:02.667Z,32.85
2022-08-05T12:38:07.156Z,32.52
2022-08-05T12:40:26.618Z,31.96
2022-08-05T12:42:33.104Z,31.81
2022-08-05T12:44:36.899Z,31.16
2022-08-05T12:46:45.705Z,31.73
2022-08-05T12:48:48.518Z,31.79
2022-08-05T12:52:10.685Z,32.63
2022-08-05T12:53:36.947Z,32.48
2022-08-05T12:55:42.348Z,33.28
2022-08-05T12:58:48.952Z,32.66
2022-08-05T13:02:01.884Z,32.56
2022-08-05T13:02:44.022Z,32.98
2022-08-05T13:04:54.936Z,33.37
2022-08-05T13:06:59.446Z,33.54
2022-08-05T13:09:08.725Z,33.69
2022-08-05T13:11:18.357Z,33.72
2022-08-05T13:14:04.875Z,33.83
2022-08-05T13:16:13.159Z,32.86
2022-08-05T13:18:20.563Z,32.46
2022-08-05T13:20:25.346Z,32.16
2022-08-05T13:22:31.281Z,31.58
2022-08-05T13:24:51.365Z,31.85
2022-08-05T13:26:57.007Z,32.19
2022-08-05T13:29:02.011Z,32.43
2022-08-05T13:31:13.883Z,31.60
2022-08-05T13:34:22.647Z,31.81
2022-08-05T13:35:42.980Z,32.33
2022-08-05T13:37:55.561Z,31.71
2022-08-05T13:40:16.048Z,31.61
2022-08-05T13:42:22.493Z,31.20
2022-08-05T13:44:29.167Z,31.47
2022-08-05T13:48:58.518Z,31.06
2022-08-05T13:51:07.467Z,31.28
2022-08-05T13:53:15.789Z,31.11
2022-08-05T13:55:41.421Z,30.92
2022-08-05T13:57:51.332Z,31.03
2022-08-05T13:59:59.372Z,30.97
2022-08-05T14:02:06.128Z,30.79
2022-08-05T14:04:39.255Z,30.91
2022-08-05T14:06:47.740Z,30.40
2022-08-05T14:09:01.444Z,30.53
2022-08-05T14:11:20.634Z,30.71
2022-08-05T14:13:25.436Z,30.83
2022-08-05T14:16:05.641Z,30.69
2022-08-05T14:17:54.975Z,30.63
2022-08-05T14:20:04.473Z,30.58
2022-08-05T14:22:11.899Z,30.31
2022-08-05T14:24:14.972Z,30.21
2022-08-05T14:26:35.470Z,30.11
2022-08-05T14:28:52.037Z,30.21
2022-08-05T14:30:56.613Z,30.35
2022-08-05T14:32:59.417Z,30.17
2022-08-05T14:35:02.083Z,29.97
2022-08-05T14:37:05.230Z,30.05
2022-08-05T14:39:08.090Z,29.90
2022-08-05T14:41:14.955Z,29.81
2022-08-05T14:43:20.585Z,29.68
2022-08-05T14:45:43.326Z,29.45
2022-08-05T14:48:03.774Z,29.45
2022-08-05T14:50:17.158Z,29.26
2022-08-05T14:52:42.913Z,29.32
2022-08-05T14:54:52.645Z,29.30
2022-08-05T14:56:56.293Z,29.26
2022-08-05T14:58:58.941Z,29.32
2022-08-05T15:01:01.718Z,29.19
2022-08-05T15:03:07.397Z,28.95
2022-08-05T15:05:13.647Z,28.78
2022-08-05T15:08:06.214Z,28.78
2022-08-05T15:09:51.943Z,28.58
2022-08-05T15:11:57.706Z,28.90
2022-08-05T15:14:00.489Z,28.97
2022-08-05T15:16:03.363Z,28.61
2022-08-05T15:18:07.446Z,28.66
2022-08-05T15:20:17.136Z,28.48
2022-08-05T15:22:22.283Z,28.90
2022-08-05T15:24:30.384Z,27.95
2022-08-05T15:26:33.604Z,27.96
2022-08-05T15:28:36.323Z,27.36
2022-08-05T15:30:46.647Z,26.62
2022-08-05T15:32:55.483Z,26.92
2022-08-05T15:35:04.070Z,27.24
2022-08-05T15:37:15.499Z,26.76
2022-08-05T15:41:04.090Z,26.24
2022-08-05T15:41:56.322Z,26.28
2022-08-05T15:44:01.912Z,26.93
2022-08-05T15:46:07.338Z,27.40
2022-08-05T15:48:14.046Z,27.49
2022-08-05T15:50:18.667Z,27.37
2022-08-05T15:52:52.163Z,27.34
2022-08-05T15:54:52.803Z,27.46
2022-08-05T15:56:55.647Z,27.65
2022-08-05T15:58:58.422Z,27.20
2022-08-05T16:01:12.018Z,26.99
2022-08-05T16:03:19.558Z,27.14
2022-08-05T16:05:28.321Z,27.31
2022-08-05T16:07:31.417Z,27.26
2022-08-05T16:09:34.582Z,27.00
2022-08-05T16:11:42.702Z,26.98
2022-08-05T16:13:46.560Z,26.94
2022-08-05T16:15:49.253Z,27.10
2022-08-05T16:17:57.312Z,27.32
2022-08-05T16:20:04.340Z,26.98
2022-08-05T16:22:11.000Z,26.99
2022-08-05T16:24:40.209Z,27.04
2022-08-05T16:26:51.734Z,26.81
2022-08-05T16:28:55.173Z,26.77
2022-08-05T16:30:58.526Z,26.73
2022-08-05T16:33:01.968Z,26.79
2022-08-05T16:35:05.205Z,26.94
2022-08-05T16:38:03.073Z,26.83
2022-08-05T16:40:06.026Z,26.59
2022-08-05T16:42:14.830Z,26.20
2022-08-05T16:44:18.793Z,25.97
2022-08-05T16:46:25.031Z,26.10
2022-08-05T16:48:33.585Z,26.08
2022-08-05T16:50:39.048Z,25.98
2022-08-05T16:52:45.949Z,25.91
2022-08-05T16:54:48.913Z,25.87
2022-08-05T16:56:52.433Z,26.10
2022-08-05T16:58:55.224Z,26.28
2022-08-05T17:00:57.971Z,26.38
2022-08-05T17:03:02.034Z,26.35
2022-08-05T17:05:05.135Z,26.28
2022-08-05T17:07:11.178Z,26.28
2022-08-05T17:09:15.713Z,26.06
2022-08-05T17:11:18.636Z,26.01
2022-08-05T17:13:37.452Z,26.25
2022-08-05T17:15:49.681Z,26.15
2022-08-05T17:17:55.706Z,26.35
2022-08-05T17:20:00.775Z,25.88
2022-08-05T17:22:05.202Z,25.91
2022-08-05T17:24:28.357Z,26.04
2022-08-05T17:26:33.362Z,26.02
2022-08-05T17:28:36.512Z,25.69
2022-08-05T17:30:42.619Z,25.77
2022-08-05T17:32:54.354Z,25.72
2022-08-05T17:34:58.158Z,25.69
2022-08-05T17:37:01.252Z,25.78
2022-08-05T17:39:05.072Z,25.95
2022-08-05T17:41:11.643Z,25.82
2022-08-05T17:43:50.588Z,25.41
2022-08-05T17:45:54.854Z,25.40
2022-08-05T17:47:58.593Z,25.24
2022-08-05T17:50:10.433Z,25.22
2022-08-05T17:52:13.897Z,25.39
2022-08-05T17:54:23.273Z,25.46
2022-08-05T17:56:28.467Z,25.39
2022-08-05T17:58:32.921Z,25.35
2022-08-05T18:00:35.611Z,25.24
2022-08-05T18:02:43.500Z,25.31
2022-08-05T18:04:51.393Z,25.24
2022-08-05T18:07:00.566Z,25.28
2022-08-05T18:09:04.133Z,25.08
2022-08-05T18:11:24.132Z,25.08
2022-08-05T18:13:36.700Z,25.14
2022-08-05T18:15:46.602Z,24.87
2022-08-05T18:17:59.491Z,24.77
2022-08-05T18:20:08.190Z,24.71
2022-08-05T18:22:18.086Z,24.67
2022-08-05T18:24:20.983Z,24.33
2022-08-05T18:26:29.147Z,24.42
2022-08-05T18:28:39.201Z,24.36
2022-08-05T18:30:42.108Z,24.43
2022-08-05T18:32:53.394Z,24.30
2022-08-05T18:35:02.718Z,24.11
2022-08-05T18:37:12.213Z,24.19
2022-08-05T18:39:42.021Z,24.25
2022-08-05T18:41:56.952Z,24.26
2022-08-05T18:44:05.515Z,23.98
2022-08-05T18:46:09.750Z,23.94
2022-08-05T18:48:30.127Z,23.78
2022-08-05T18:52:06.301Z,23.84
2022-08-05T18:53:26.452Z,24.08
2022-08-05T18:55:31.234Z,23.83
2022-08-05T18:57:43.660Z,23.69
2022-08-05T19:00:02.329Z,23.66
2022-08-05T19:02:11.505Z,23.70
2022-08-05T19:04:30.541Z,23.73
2022-08-05T19:06:44.618Z,23.40
2022-08-05T19:08:48.309Z,23.50
2022-08-05T19:10:51.193Z,23.55
2022-08-05T19:12:53.934Z,23.37
2022-08-05T19:15:00.591Z,23.34
2022-08-05T19:17:05.576Z,23.47
2022-08-05T19:19:10.475Z,23.19
2022-08-05T19:21:15.754Z,23.26
2022-08-05T19:24:03.292Z,23.13
2022-08-05T19:25:43.724Z,23.12
2022-08-05T19:27:47.138Z,23.15
2022-08-05T19:29:52.551Z,23.23
2022-08-05T19:31:57.342Z,23.01
2022-08-05T19:34:00.232Z,22.99
2022-08-05T19:36:06.192Z,23.14
2022-08-05T19:38:09.595Z,22.97
2022-08-05T19:40:12.884Z,22.96
2022-08-05T19:42:17.946Z,22.95
2022-08-05T19:44:20.889Z,23.08
2022-08-05T19:46:29.559Z,22.85
2022-08-05T19:48:37.059Z,23.08
2022-08-05T19:50:40.037Z,22.72
2022-08-05T19:52:43.274Z,22.97
2022-08-05T19:54:50.596Z,22.80
2022-08-05T19:56:54.133Z,22.82
2022-08-05T19:58:56.960Z,22.77
2022-08-05T20:00:59.951Z,22.68
2022-08-05T20:03:08.780Z,22.71
2022-08-05T20:05:16.403Z,22.45
2022-08-05T20:07:47.311Z,22.57
2022-08-05T20:09:55.037Z,22.40
2022-08-05T20:11:59.403Z,22.34
2022-08-05T20:14:12.398Z,22.37
2022-08-05T20:16:19.591Z,22.37
2022-08-05T20:18:33.747Z,22.08
2022-08-05T20:20:44.454Z,21.88
2022-08-05T20:22:47.506Z,21.68
2022-08-05T20:24:52.073Z,21.60
2022-08-05T20:26:56.487Z,21.50
2022-08-05T20:29:00.847Z,21.50
2022-08-05T20:31:04.217Z,21.35
2022-08-05T20:33:07.464Z,21.01
2022-08-05T20:35:10.542Z,21.28
2022-08-05T20:37:24.185Z,21.58
2022-08-05T20:39:38.802Z,21.46
2022-08-05T20:41:43.904Z,21.72
2022-08-05T20:43:59.100Z,21.35
2022-08-05T20:46:06.738Z,21.49
2022-08-05T20:48:09.466Z,21.23
2022-08-05T20:50:12.320Z,21.43
2022-08-05T20:52:16.376Z,21.35
2022-08-05T20:54:20.769Z,21.14
2022-08-05T20:56:27.674Z,21.22
2022-08-05T20:58:32.744Z,20.76
2022-08-05T21:00:44.290Z,21.04
2022-08-05T21:02:57.618Z,21.07
2022-08-05T21:05:02.571Z,20.96
2022-08-05T21:07:05.528Z,21.06
2022-08-05T21:09:12.158Z,21.18
2022-08-05T21:12:06.766Z,21.36
2022-08-05T21:13:48.044Z,20.85
2022-08-05T21:15:59.501Z,20.84
2022-08-05T21:18:02.212Z,20.70
2022-08-05T21:20:10.170Z,20.97
2022-08-05T21:22:13.119Z,20.97
2022-08-05T21:24:19.481Z,20.84
2022-08-05T21:26:22.603Z,20.72
2022-08-05T21:28:30.667Z,20.88
2022-08-05T21:30:33.628Z,20.83
2022-08-05T21:32:36.407Z,21.00
2022-08-05T21:34:41.168Z,21.02
2022-08-05T21:36:46.644Z,20.74
2022-08-05T21:38:51.936Z,20.47
2022-08-05T21:40:56.503Z,20.71
2022-08-05T21:42:59.399Z,20.56
2022-08-05T21:45:02.622Z,20.54
2022-08-05T21:47:17.318Z,20.51
2022-08-05T21:49:58.908Z,20.64
2022-08-05T21:52:27.155Z,20.54
2022-08-05T21:54:14.969Z,20.60
2022-08-05T21:56:18.977Z,20.32
2022-08-05T21:58:24.829Z,20.18
2022-08-05T22:00:33.530Z,20.36
2022-08-05T22:02:36.545Z,20.45
2022-08-05T22:04:39.490Z,20.59
2022-08-05T22:06:42.818Z,20.61
2022-08-05T22:08:53.611Z,20.31
2022-08-05T22:10:57.989Z,20.65
2022-08-05T22:14:05.203Z,20.40
2022-08-05T22:16:00.341Z,20.60
2022-08-05T22:17:48.556Z,20.69
2022-08-05T22:20:02.681Z,20.78
2022-08-05T22:22:15.465Z,20.55
2022-08-05T22:24:39.594Z,20.44
2022-08-05T22:27:01.365Z,20.40
2022-08-05T22:29:11.055Z,20.45
2022-08-05T22:31:17.072Z,20.35
2022-08-05T22:33:55.688Z,20.22
2022-08-05T22:35:48.802Z,20.53
2022-08-05T22:37:58.643Z,20.59
2022-08-05T22:40:02.584Z,20.52
2022-08-05T22:42:11.255Z,20.68
2022-08-05T22:44:19.144Z,20.51
2022-08-05T22:46:23.581Z,20.51
2022-08-05T22:48:28.602Z,20.32
2022-08-05T22:50:31.473Z,20.62
2022-08-05T22:52:34.479Z,20.55
2022-08-05T22:54:37.855Z,20.56
2022-08-05T22:56:41.628Z,20.47
2022-08-05T22:58:44.879Z,20.33
2022-08-05T23:00:48.920Z,20.40
2022-08-05T23:02:53.292Z,20.74
2022-08-05T23:04:56.298Z,20.65
2022-08-05T23:06:59.006Z,20.30
2022-08-05T23:09:27.003Z,20.47
2022-08-05T23:11:27.162Z,20.14
2022-08-05T23:13:33.502Z,20.36
2022-08-05T23:15:37.345Z,20.32
2022-08-05T23:18:00.903Z,20.30
2022-08-05T23:20:10.511Z,20.34
2022-08-05T23:22:19.876Z,20.49
2022-08-05T23:24:30.345Z,20.23
2022-08-05T23:26:33.037Z,20.39
2022-08-05T23:28:36.073Z,20.16
2022-08-05T23:30:43.427Z,20.26
2022-08-05T23:32:47.816Z,20.44
2022-08-05T23:34:52.077Z,20.51
2022-08-05T23:36:55.187Z,20.20
2022-08-05T23:38:57.863Z,20.35
2022-08-05T23:41:02.371Z,19.99
2022-08-05T23:43:11.308Z,20.02
2022-08-05T23:45:27.383Z,20.08
2022-08-05T23:47:35.746Z,20.21
2022-08-05T23:49:56.424Z,20.06
2022-08-05T23:52:17.012Z,19.91
2022-08-05T23:54:25.847Z,20.01
2022-08-05T23:56:29.293Z,19.65
2022-08-05T23:58:32.650Z,19.77
